Pays
Station

 

Conditions  météo  pour  West Palm Beach, Palm Beach International Airport  -  Etats-Unis    Etats-Unis

  
25 °C
    
 
 

METAR pour West Palm Beach, Palm Beach International Airport :

KPBI 180753Z 20008KT 10SM SCT055 BKN100 BKN200 25/21 A3005 RMK AO2 SLP176 T02500206

 

Voici le bulletin pour West Palm Beach, Palm Beach International Airport - Etats-Unis.
 
Le bulletin a été fait il y a une heure et 1 minutes, à 07:53 UTC .
Le vent soufflait à la vitesse de 4.1 mètres par seconde de Sud/Sud-ouest (200°).
 
La température était de 25 °C, avec un point de rosée à 21 °C.
La température ressentie était de 26 °C.
 
La pression atmosphérique était de 1018 hPa.
L'humidité relative était de 78.5%.
 
Il y avait 3 à 4/8ème de nébulosité à une hauteur de 1676 mètres, 5 à 7/8ème de nébulosité à une hauteur de 3048 mètres et 5 à 7/8ème de nébulosité à une hauteur de 6096 mètres.
 
La visibilité globale était de 16.1 kilomètres.
 

 
 
 

Pays :   A   B   C   D   E   F   G   H   I   J   K   L   M   N   O   P   Q   R   S   T   U   V   W   Y   Z

 

Partenaires :  Info Météo avec Met'info
Météo Marine avec MeteoMarine.net
Infos Site  |  Infos Légales  |  Crédits  |  Confidentialité
Contactez-nous  |  Ajouter aux favoris
© 2013-2019 METAR - Tous droits réservés